sensor_id;sensor_type;location;lat;lon;timestamp;P1;durP1;ratioP1;P2;durP2;ratioP2
2257;SDS011;1136;51.574;7.706;2023-03-23T00:01:53;6.73;;;3.97;;
2257;SDS011;1136;51.574;7.706;2023-03-23T00:04:18;4.90;;;4.30;;
2257;SDS011;1136;51.574;7.706;2023-03-23T00:06:46;7.20;;;4.97;;
2257;SDS011;1136;51.574;7.706;2023-03-23T00:09:15;18.43;;;6.43;;
2257;SDS011;1136;51.574;7.706;2023-03-23T00:11:41;11.10;;;7.67;;
2257;SDS011;1136;51.574;7.706;2023-03-23T00:14:08;10.27;;;6.80;;
2257;SDS011;1136;51.574;7.706;2023-03-23T00:16:38;6.90;;;5.30;;
2257;SDS011;1136;51.574;7.706;2023-03-23T00:19:13;7.73;;;5.80;;
2257;SDS011;1136;51.574;7.706;2023-03-23T00:21:39;8.33;;;5.47;;
2257;SDS011;1136;51.574;7.706;2023-03-23T00:24:24;5.43;;;4.30;;
2257;SDS011;1136;51.574;7.706;2023-03-23T00:26:50;8.13;;;4.80;;
2257;SDS011;1136;51.574;7.706;2023-03-23T00:29:19;5.60;;;4.87;;
2257;SDS011;1136;51.574;7.706;2023-03-23T00:31:46;3.83;;;3.37;;
2257;SDS011;1136;51.574;7.706;2023-03-23T00:34:13;6.20;;;3.80;;
2257;SDS011;1136;51.574;7.706;2023-03-23T00:36:45;3.90;;;3.40;;
2257;SDS011;1136;51.574;7.706;2023-03-23T00:39:11;4.63;;;3.60;;
2257;SDS011;1136;51.574;7.706;2023-03-23T00:41:37;8.00;;;3.63;;
2257;SDS011;1136;51.574;7.706;2023-03-23T00:44:03;3.43;;;3.13;;
2257;SDS011;1136;51.574;7.706;2023-03-23T00:46:29;5.57;;;3.47;;
2257;SDS011;1136;51.574;7.706;2023-03-23T00:48:55;4.77;;;4.10;;
2257;SDS011;1136;51.574;7.706;2023-03-23T00:51:22;4.80;;;4.10;;
2257;SDS011;1136;51.574;7.706;2023-03-23T00:53:48;4.23;;;3.83;;
2257;SDS011;1136;51.574;7.706;2023-03-23T00:56:13;8.17;;;5.07;;
2257;SDS011;1136;51.574;7.706;2023-03-23T00:58:39;5.83;;;5.23;;
2257;SDS011;1136;51.574;7.706;2023-03-23T01:01:05;6.57;;;4.77;;
2257;SDS011;1136;51.574;7.706;2023-03-23T01:03:31;4.57;;;4.20;;
2257;SDS011;1136;51.574;7.706;2023-03-23T01:05:57;5.43;;;4.40;;
2257;SDS011;1136;51.574;7.706;2023-03-23T01:08:22;5.77;;;5.13;;
2257;SDS011;1136;51.574;7.706;2023-03-23T01:10:49;5.70;;;4.83;;
2257;SDS011;1136;51.574;7.706;2023-03-23T01:13:14;5.00;;;4.50;;
2257;SDS011;1136;51.574;7.706;2023-03-23T01:15:40;4.60;;;4.17;;
2257;SDS011;1136;51.574;7.706;2023-03-23T01:18:07;6.40;;;4.53;;
2257;SDS011;1136;51.574;7.706;2023-03-23T01:20:33;6.63;;;3.90;;
2257;SDS011;1136;51.574;7.706;2023-03-23T01:23:00;4.37;;;3.80;;
2257;SDS011;1136;51.574;7.706;2023-03-23T01:25:27;3.00;;;2.70;;
2257;SDS011;1136;51.574;7.706;2023-03-23T01:27:53;3.20;;;2.90;;
2257;SDS011;1136;51.574;7.706;2023-03-23T01:30:19;5.73;;;3.40;;
2257;SDS011;1136;51.574;7.706;2023-03-23T01:32:45;6.70;;;3.90;;
2257;SDS011;1136;51.574;7.706;2023-03-23T01:35:12;4.47;;;3.00;;
2257;SDS011;1136;51.574;7.706;2023-03-23T01:37:38;6.50;;;3.80;;
2257;SDS011;1136;51.574;7.706;2023-03-23T01:40:03;3.07;;;2.83;;
2257;SDS011;1136;51.574;7.706;2023-03-23T01:42:31;3.80;;;2.97;;
2257;SDS011;1136;51.574;7.706;2023-03-23T01:47:46;3.93;;;3.50;;
2257;SDS011;1136;51.574;7.706;2023-03-23T01:50:13;6.87;;;4.20;;
2257;SDS011;1136;51.574;7.706;2023-03-23T01:52:39;3.40;;;2.93;;
2257;SDS011;1136;51.574;7.706;2023-03-23T01:55:06;6.60;;;3.20;;
2257;SDS011;1136;51.574;7.706;2023-03-23T01:57:31;5.80;;;3.90;;
2257;SDS011;1136;51.574;7.706;2023-03-23T01:59:57;3.73;;;3.00;;
2257;SDS011;1136;51.574;7.706;2023-03-23T02:02:33;6.83;;;3.70;;
2257;SDS011;1136;51.574;7.706;2023-03-23T02:05:02;6.60;;;3.37;;
2257;SDS011;1136;51.574;7.706;2023-03-23T02:07:29;4.87;;;4.37;;
2257;SDS011;1136;51.574;7.706;2023-03-23T02:09:57;6.70;;;3.53;;
2257;SDS011;1136;51.574;7.706;2023-03-23T02:12:22;4.00;;;3.50;;
2257;SDS011;1136;51.574;7.706;2023-03-23T02:14:48;6.10;;;3.27;;
2257;SDS011;1136;51.574;7.706;2023-03-23T02:20:11;3.40;;;2.77;;
2257;SDS011;1136;51.574;7.706;2023-03-23T02:35:49;2.67;;;2.27;;
2257;SDS011;1136;51.574;7.706;2023-03-23T02:38:21;5.20;;;3.30;;
2257;SDS011;1136;51.574;7.706;2023-03-23T02:40:54;3.00;;;2.67;;
2257;SDS011;1136;51.574;7.706;2023-03-23T02:43:22;5.77;;;2.50;;
2257;SDS011;1136;51.574;7.706;2023-03-23T02:45:50;3.17;;;2.87;;
2257;SDS011;1136;51.574;7.706;2023-03-23T02:48:16;3.10;;;2.90;;
2257;SDS011;1136;51.574;7.706;2023-03-23T02:50:44;5.20;;;2.83;;
2257;SDS011;1136;51.574;7.706;2023-03-23T02:53:12;2.73;;;2.53;;
2257;SDS011;1136;51.574;7.706;2023-03-23T02:55:40;2.53;;;2.33;;
2257;SDS011;1136;51.574;7.706;2023-03-23T02:58:10;2.70;;;2.50;;
2257;SDS011;1136;51.574;7.706;2023-03-23T03:00:37;3.20;;;2.97;;
2257;SDS011;1136;51.574;7.706;2023-03-23T03:03:03;6.37;;;3.90;;
2257;SDS011;1136;51.574;7.706;2023-03-23T03:05:42;4.70;;;4.20;;
2257;SDS011;1136;51.574;7.706;2023-03-23T03:11:02;2.30;;;2.20;;
2257;SDS011;1136;51.574;7.706;2023-03-23T03:13:40;2.50;;;2.30;;
2257;SDS011;1136;51.574;7.706;2023-03-23T03:16:19;2.43;;;2.23;;
2257;SDS011;1136;51.574;7.706;2023-03-23T03:19:17;2.67;;;2.37;;
2257;SDS011;1136;51.574;7.706;2023-03-23T03:21:46;2.50;;;2.30;;
2257;SDS011;1136;51.574;7.706;2023-03-23T03:24:14;2.50;;;2.30;;
2257;SDS011;1136;51.574;7.706;2023-03-23T03:26:43;2.93;;;2.73;;
2257;SDS011;1136;51.574;7.706;2023-03-23T03:29:13;2.67;;;2.47;;
2257;SDS011;1136;51.574;7.706;2023-03-23T03:31:39;4.37;;;3.50;;
2257;SDS011;1136;51.574;7.706;2023-03-23T03:34:10;3.00;;;2.80;;
2257;SDS011;1136;51.574;7.706;2023-03-23T03:36:36;2.80;;;2.60;;
2257;SDS011;1136;51.574;7.706;2023-03-23T03:39:03;3.17;;;2.80;;
2257;SDS011;1136;51.574;7.706;2023-03-23T03:41:31;4.67;;;3.00;;
2257;SDS011;1136;51.574;7.706;2023-03-23T03:43:56;3.60;;;3.27;;
2257;SDS011;1136;51.574;7.706;2023-03-23T03:46:22;7.03;;;3.83;;
2257;SDS011;1136;51.574;7.706;2023-03-23T03:48:52;5.10;;;3.13;;
2257;SDS011;1136;51.574;7.706;2023-03-23T03:51:18;4.33;;;3.90;;
2257;SDS011;1136;51.574;7.706;2023-03-23T03:53:43;4.73;;;3.57;;
2257;SDS011;1136;51.574;7.706;2023-03-23T03:56:09;2.40;;;2.20;;
2257;SDS011;1136;51.574;7.706;2023-03-23T03:58:35;3.33;;;2.73;;
2257;SDS011;1136;51.574;7.706;2023-03-23T04:01:01;2.13;;;2.03;;
2257;SDS011;1136;51.574;7.706;2023-03-23T04:03:28;6.70;;;2.90;;
2257;SDS011;1136;51.574;7.706;2023-03-23T04:05:54;3.30;;;2.90;;
2257;SDS011;1136;51.574;7.706;2023-03-23T04:08:21;3.57;;;3.20;;
2257;SDS011;1136;51.574;7.706;2023-03-23T04:10:51;3.73;;;3.10;;
2257;SDS011;1136;51.574;7.706;2023-03-23T04:13:18;3.03;;;2.83;;
2257;SDS011;1136;51.574;7.706;2023-03-23T04:15:45;3.40;;;2.73;;
2257;SDS011;1136;51.574;7.706;2023-03-23T04:18:11;2.80;;;2.60;;
2257;SDS011;1136;51.574;7.706;2023-03-23T04:20:41;2.93;;;2.73;;
2257;SDS011;1136;51.574;7.706;2023-03-23T04:23:07;2.80;;;2.60;;
2257;SDS011;1136;51.574;7.706;2023-03-23T04:25:33;3.90;;;2.70;;
2257;SDS011;1136;51.574;7.706;2023-03-23T04:27:59;3.57;;;3.27;;
2257;SDS011;1136;51.574;7.706;2023-03-23T04:30:26;2.47;;;2.27;;
2257;SDS011;1136;51.574;7.706;2023-03-23T04:32:53;3.73;;;2.50;;
2257;SDS011;1136;51.574;7.706;2023-03-23T04:35:24;2.47;;;2.27;;
2257;SDS011;1136;51.574;7.706;2023-03-23T04:37:51;2.43;;;2.23;;
2257;SDS011;1136;51.574;7.706;2023-03-23T04:40:18;2.40;;;2.20;;
2257;SDS011;1136;51.574;7.706;2023-03-23T04:42:44;2.27;;;1.73;;
2257;SDS011;1136;51.574;7.706;2023-03-23T04:45:15;5.20;;;2.50;;
2257;SDS011;1136;51.574;7.706;2023-03-23T04:47:49;2.03;;;1.93;;
2257;SDS011;1136;51.574;7.706;2023-03-23T04:50:23;2.30;;;2.20;;
2257;SDS011;1136;51.574;7.706;2023-03-23T04:52:56;3.60;;;2.87;;
2257;SDS011;1136;51.574;7.706;2023-03-23T04:55:23;3.57;;;3.27;;
2257;SDS011;1136;51.574;7.706;2023-03-23T04:57:49;2.77;;;2.57;;
2257;SDS011;1136;51.574;7.706;2023-03-23T05:00:15;5.57;;;2.93;;
2257;SDS011;1136;51.574;7.706;2023-03-23T05:02:42;2.40;;;2.20;;
2257;SDS011;1136;51.574;7.706;2023-03-23T05:05:10;3.40;;;2.30;;
2257;SDS011;1136;51.574;7.706;2023-03-23T05:07:40;2.97;;;2.67;;
2257;SDS011;1136;51.574;7.706;2023-03-23T05:10:08;3.43;;;3.00;;
2257;SDS011;1136;51.574;7.706;2023-03-23T05:12:35;5.07;;;2.93;;
2257;SDS011;1136;51.574;7.706;2023-03-23T05:15:01;3.40;;;2.80;;
2257;SDS011;1136;51.574;7.706;2023-03-23T05:17:27;3.70;;;2.93;;
2257;SDS011;1136;51.574;7.706;2023-03-23T05:19:55;3.57;;;2.80;;
2257;SDS011;1136;51.574;7.706;2023-03-23T05:22:22;3.70;;;2.83;;
2257;SDS011;1136;51.574;7.706;2023-03-23T05:24:48;2.90;;;2.70;;
2257;SDS011;1136;51.574;7.706;2023-03-23T05:27:16;3.70;;;2.50;;
2257;SDS011;1136;51.574;7.706;2023-03-23T05:29:44;2.80;;;2.60;;
2257;SDS011;1136;51.574;7.706;2023-03-23T05:32:11;2.97;;;2.77;;
2257;SDS011;1136;51.574;7.706;2023-03-23T05:34:37;3.07;;;2.87;;
2257;SDS011;1136;51.574;7.706;2023-03-23T05:37:03;2.77;;;2.57;;
2257;SDS011;1136;51.574;7.706;2023-03-23T05:39:29;3.00;;;2.70;;
2257;SDS011;1136;51.574;7.706;2023-03-23T05:41:56;3.27;;;3.03;;
2257;SDS011;1136;51.574;7.706;2023-03-23T05:44:22;4.20;;;3.33;;
2257;SDS011;1136;51.574;7.706;2023-03-23T05:46:47;3.83;;;3.33;;
2257;SDS011;1136;51.574;7.706;2023-03-23T05:49:13;5.90;;;4.63;;
2257;SDS011;1136;51.574;7.706;2023-03-23T05:51:41;17.50;;;8.87;;
2257;SDS011;1136;51.574;7.706;2023-03-23T05:54:07;9.70;;;6.83;;
2257;SDS011;1136;51.574;7.706;2023-03-23T05:56:33;4.13;;;3.73;;
2257;SDS011;1136;51.574;7.706;2023-03-23T05:58:59;5.13;;;3.00;;
2257;SDS011;1136;51.574;7.706;2023-03-23T06:01:25;2.30;;;1.93;;
2257;SDS011;1136;51.574;7.706;2023-03-23T06:03:51;3.83;;;2.70;;
2257;SDS011;1136;51.574;7.706;2023-03-23T06:06:20;5.60;;;2.80;;
2257;SDS011;1136;51.574;7.706;2023-03-23T06:08:45;5.80;;;2.80;;
2257;SDS011;1136;51.574;7.706;2023-03-23T06:11:12;3.57;;;3.27;;
2257;SDS011;1136;51.574;7.706;2023-03-23T06:13:38;2.83;;;2.60;;
2257;SDS011;1136;51.574;7.706;2023-03-23T06:16:04;2.77;;;2.53;;
2257;SDS011;1136;51.574;7.706;2023-03-23T06:18:29;3.10;;;2.77;;
2257;SDS011;1136;51.574;7.706;2023-03-23T06:20:58;2.60;;;2.30;;
2257;SDS011;1136;51.574;7.706;2023-03-23T06:23:25;4.20;;;3.00;;
2257;SDS011;1136;51.574;7.706;2023-03-23T06:25:58;2.87;;;2.60;;
2257;SDS011;1136;51.574;7.706;2023-03-23T06:28:26;2.70;;;2.57;;
2257;SDS011;1136;51.574;7.706;2023-03-23T06:30:52;3.00;;;2.80;;
2257;SDS011;1136;51.574;7.706;2023-03-23T06:33:18;3.87;;;2.83;;
2257;SDS011;1136;51.574;7.706;2023-03-23T06:35:43;5.83;;;3.60;;
2257;SDS011;1136;51.574;7.706;2023-03-23T06:38:09;5.53;;;4.97;;
2257;SDS011;1136;51.574;7.706;2023-03-23T06:40:35;11.70;;;9.20;;
2257;SDS011;1136;51.574;7.706;2023-03-23T06:43:03;10.30;;;9.17;;
2257;SDS011;1136;51.574;7.706;2023-03-23T06:45:29;5.37;;;4.80;;
2257;SDS011;1136;51.574;7.706;2023-03-23T06:47:55;5.17;;;4.63;;
2257;SDS011;1136;51.574;7.706;2023-03-23T06:50:21;6.63;;;6.00;;
2257;SDS011;1136;51.574;7.706;2023-03-23T06:52:47;6.20;;;5.60;;
2257;SDS011;1136;51.574;7.706;2023-03-23T06:55:15;8.53;;;4.73;;
2257;SDS011;1136;51.574;7.706;2023-03-23T06:57:42;7.40;;;6.10;;
2257;SDS011;1136;51.574;7.706;2023-03-23T07:00:09;4.60;;;4.20;;
2257;SDS011;1136;51.574;7.706;2023-03-23T07:02:42;6.50;;;4.10;;
2257;SDS011;1136;51.574;7.706;2023-03-23T07:05:10;4.73;;;4.00;;
2257;SDS011;1136;51.574;7.706;2023-03-23T07:07:37;3.20;;;3.00;;
2257;SDS011;1136;51.574;7.706;2023-03-23T07:10:03;4.17;;;3.17;;
2257;SDS011;1136;51.574;7.706;2023-03-23T07:12:30;5.63;;;3.60;;
2257;SDS011;1136;51.574;7.706;2023-03-23T07:14:57;7.73;;;2.83;;
2257;SDS011;1136;51.574;7.706;2023-03-23T07:17:22;3.50;;;2.50;;
2257;SDS011;1136;51.574;7.706;2023-03-23T07:19:48;2.70;;;2.30;;
2257;SDS011;1136;51.574;7.706;2023-03-23T07:22:14;5.53;;;2.90;;
2257;SDS011;1136;51.574;7.706;2023-03-23T07:24:39;2.93;;;2.50;;
2257;SDS011;1136;51.574;7.706;2023-03-23T07:27:05;4.37;;;2.70;;
2257;SDS011;1136;51.574;7.706;2023-03-23T07:29:31;2.93;;;2.73;;
2257;SDS011;1136;51.574;7.706;2023-03-23T07:32:00;4.07;;;3.00;;
2257;SDS011;1136;51.574;7.706;2023-03-23T07:34:26;6.33;;;2.70;;
2257;SDS011;1136;51.574;7.706;2023-03-23T07:36:52;2.97;;;2.70;;
2257;SDS011;1136;51.574;7.706;2023-03-23T07:39:17;6.20;;;2.80;;
2257;SDS011;1136;51.574;7.706;2023-03-23T07:41:43;3.10;;;2.80;;
2257;SDS011;1136;51.574;7.706;2023-03-23T07:44:08;4.20;;;2.57;;
2257;SDS011;1136;51.574;7.706;2023-03-23T07:46:34;4.27;;;2.77;;
2257;SDS011;1136;51.574;7.706;2023-03-23T07:49:01;5.03;;;2.63;;
2257;SDS011;1136;51.574;7.706;2023-03-23T07:51:30;5.00;;;3.00;;
2257;SDS011;1136;51.574;7.706;2023-03-23T07:53:55;5.27;;;2.60;;
2257;SDS011;1136;51.574;7.706;2023-03-23T07:56:22;2.93;;;2.60;;
2257;SDS011;1136;51.574;7.706;2023-03-23T07:58:48;4.60;;;2.60;;
2257;SDS011;1136;51.574;7.706;2023-03-23T08:01:15;3.07;;;2.47;;
2257;SDS011;1136;51.574;7.706;2023-03-23T08:03:41;6.07;;;3.13;;
2257;SDS011;1136;51.574;7.706;2023-03-23T08:06:07;3.00;;;2.63;;
2257;SDS011;1136;51.574;7.706;2023-03-23T08:08:33;6.30;;;2.83;;
2257;SDS011;1136;51.574;7.706;2023-03-23T08:10:59;3.73;;;2.40;;
2257;SDS011;1136;51.574;7.706;2023-03-23T08:13:25;3.90;;;2.53;;
2257;SDS011;1136;51.574;7.706;2023-03-23T08:15:51;3.73;;;2.70;;
2257;SDS011;1136;51.574;7.706;2023-03-23T08:18:17;4.37;;;2.50;;
2257;SDS011;1136;51.574;7.706;2023-03-23T08:20:43;3.03;;;2.33;;
2257;SDS011;1136;51.574;7.706;2023-03-23T08:23:13;4.67;;;2.57;;
2257;SDS011;1136;51.574;7.706;2023-03-23T08:25:42;3.53;;;2.70;;
2257;SDS011;1136;51.574;7.706;2023-03-23T08:28:11;2.80;;;2.23;;
2257;SDS011;1136;51.574;7.706;2023-03-23T08:30:39;4.43;;;3.00;;
2257;SDS011;1136;51.574;7.706;2023-03-23T08:33:05;4.83;;;2.30;;
2257;SDS011;1136;51.574;7.706;2023-03-23T08:35:32;1.93;;;1.80;;
2257;SDS011;1136;51.574;7.706;2023-03-23T08:37:57;4.33;;;2.33;;
2257;SDS011;1136;51.574;7.706;2023-03-23T08:40:24;8.47;;;3.30;;
2257;SDS011;1136;51.574;7.706;2023-03-23T08:42:50;3.13;;;2.80;;
2257;SDS011;1136;51.574;7.706;2023-03-23T08:45:18;5.00;;;2.87;;
2257;SDS011;1136;51.574;7.706;2023-03-23T08:47:46;3.30;;;2.50;;
2257;SDS011;1136;51.574;7.706;2023-03-23T08:50:18;3.00;;;2.43;;
2257;SDS011;1136;51.574;7.706;2023-03-23T08:52:46;2.93;;;2.20;;
2257;SDS011;1136;51.574;7.706;2023-03-23T08:55:16;4.03;;;2.30;;
2257;SDS011;1136;51.574;7.706;2023-03-23T08:57:43;3.30;;;2.07;;
2257;SDS011;1136;51.574;7.706;2023-03-23T09:00:10;3.27;;;2.47;;
2257;SDS011;1136;51.574;7.706;2023-03-23T09:02:44;4.30;;;2.33;;
2257;SDS011;1136;51.574;7.706;2023-03-23T09:05:11;3.83;;;2.23;;
2257;SDS011;1136;51.574;7.706;2023-03-23T09:07:40;2.30;;;2.10;;
2257;SDS011;1136;51.574;7.706;2023-03-23T09:10:07;3.93;;;2.27;;
2257;SDS011;1136;51.574;7.706;2023-03-23T09:12:34;4.10;;;2.30;;
2257;SDS011;1136;51.574;7.706;2023-03-23T09:15:00;2.80;;;2.10;;
2257;SDS011;1136;51.574;7.706;2023-03-23T09:17:30;2.50;;;1.90;;
2257;SDS011;1136;51.574;7.706;2023-03-23T09:19:57;8.57;;;2.37;;
2257;SDS011;1136;51.574;7.706;2023-03-23T09:22:22;3.50;;;2.30;;
2257;SDS011;1136;51.574;7.706;2023-03-23T09:24:49;4.00;;;3.00;;
2257;SDS011;1136;51.574;7.706;2023-03-23T09:27:17;2.93;;;2.63;;
2257;SDS011;1136;51.574;7.706;2023-03-23T09:29:42;3.93;;;2.40;;
2257;SDS011;1136;51.574;7.706;2023-03-23T09:32:09;3.73;;;2.20;;
2257;SDS011;1136;51.574;7.706;2023-03-23T09:34:35;5.63;;;3.33;;
2257;SDS011;1136;51.574;7.706;2023-03-23T09:37:03;5.37;;;2.27;;
2257;SDS011;1136;51.574;7.706;2023-03-23T09:39:29;5.07;;;2.70;;
2257;SDS011;1136;51.574;7.706;2023-03-23T09:42:02;2.70;;;2.00;;
2257;SDS011;1136;51.574;7.706;2023-03-23T09:44:51;6.13;;;2.43;;
2257;SDS011;1136;51.574;7.706;2023-03-23T09:47:49;2.00;;;1.90;;
2257;SDS011;1136;51.574;7.706;2023-03-23T09:50:23;2.43;;;2.03;;
2257;SDS011;1136;51.574;7.706;2023-03-23T09:55:17;2.93;;;2.03;;
2257;SDS011;1136;51.574;7.706;2023-03-23T10:00:43;5.10;;;2.40;;
2257;SDS011;1136;51.574;7.706;2023-03-23T10:03:19;4.50;;;3.10;;
2257;SDS011;1136;51.574;7.706;2023-03-23T10:05:51;3.33;;;1.80;;
2257;SDS011;1136;51.574;7.706;2023-03-23T10:08:19;7.13;;;3.23;;
2257;SDS011;1136;51.574;7.706;2023-03-23T10:10:58;5.00;;;2.23;;
2257;SDS011;1136;51.574;7.706;2023-03-23T10:13:55;3.47;;;2.60;;
2257;SDS011;1136;51.574;7.706;2023-03-23T10:16:23;2.90;;;2.17;;
2257;SDS011;1136;51.574;7.706;2023-03-23T10:19:01;5.87;;;2.87;;
2257;SDS011;1136;51.574;7.706;2023-03-23T10:21:34;7.00;;;2.70;;
2257;SDS011;1136;51.574;7.706;2023-03-23T10:24:07;4.23;;;2.40;;
2257;SDS011;1136;51.574;7.706;2023-03-23T10:26:40;7.70;;;3.20;;
2257;SDS011;1136;51.574;7.706;2023-03-23T10:29:11;4.13;;;2.30;;
2257;SDS011;1136;51.574;7.706;2023-03-23T10:31:47;5.87;;;2.53;;
2257;SDS011;1136;51.574;7.706;2023-03-23T10:34:24;4.90;;;2.97;;
2257;SDS011;1136;51.574;7.706;2023-03-23T10:39:45;4.33;;;2.30;;
2257;SDS011;1136;51.574;7.706;2023-03-23T10:42:36;4.20;;;2.37;;
2257;SDS011;1136;51.574;7.706;2023-03-23T10:48:32;2.10;;;1.23;;
2257;SDS011;1136;51.574;7.706;2023-03-23T10:50:58;3.07;;;1.50;;
2257;SDS011;1136;51.574;7.706;2023-03-23T10:55:55;2.37;;;1.33;;
2257;SDS011;1136;51.574;7.706;2023-03-23T11:00:54;3.83;;;1.70;;
2257;SDS011;1136;51.574;7.706;2023-03-23T11:03:25;1.93;;;1.60;;
2257;SDS011;1136;51.574;7.706;2023-03-23T11:06:01;4.13;;;1.90;;
2257;SDS011;1136;51.574;7.706;2023-03-23T11:08:29;6.57;;;1.60;;
2257;SDS011;1136;51.574;7.706;2023-03-23T11:11:08;2.93;;;1.50;;
2257;SDS011;1136;51.574;7.706;2023-03-23T11:13:48;6.30;;;2.37;;
2257;SDS011;1136;51.574;7.706;2023-03-23T11:16:28;3.77;;;2.07;;
2257;SDS011;1136;51.574;7.706;2023-03-23T11:18:56;2.43;;;1.83;;
2257;SDS011;1136;51.574;7.706;2023-03-23T11:21:23;3.33;;;1.70;;
2257;SDS011;1136;51.574;7.706;2023-03-23T11:23:50;4.60;;;1.53;;
2257;SDS011;1136;51.574;7.706;2023-03-23T11:26:22;4.80;;;1.97;;
2257;SDS011;1136;51.574;7.706;2023-03-23T11:31:36;4.73;;;2.40;;
2257;SDS011;1136;51.574;7.706;2023-03-23T11:36:48;2.33;;;1.70;;
2257;SDS011;1136;51.574;7.706;2023-03-23T11:41:59;2.23;;;1.20;;
2257;SDS011;1136;51.574;7.706;2023-03-23T11:44:40;1.53;;;1.23;;
2257;SDS011;1136;51.574;7.706;2023-03-23T11:47:16;2.10;;;1.00;;
2257;SDS011;1136;51.574;7.706;2023-03-23T11:57:55;4.67;;;1.10;;
2257;SDS011;1136;51.574;7.706;2023-03-23T12:00:21;2.60;;;1.13;;
2257;SDS011;1136;51.574;7.706;2023-03-23T12:02:53;5.30;;;1.70;;
2257;SDS011;1136;51.574;7.706;2023-03-23T12:19:16;6.33;;;3.63;;
2257;SDS011;1136;51.574;7.706;2023-03-23T12:29:59;4.87;;;4.20;;
2257;SDS011;1136;51.574;7.706;2023-03-23T12:48:29;7.30;;;6.57;;
2257;SDS011;1136;51.574;7.706;2023-03-23T12:56:42;8.33;;;7.60;;
2257;SDS011;1136;51.574;7.706;2023-03-23T13:04:45;8.27;;;6.80;;
2257;SDS011;1136;51.574;7.706;2023-03-23T13:07:14;6.20;;;5.70;;
2257;SDS011;1136;51.574;7.706;2023-03-23T13:09:50;6.03;;;5.53;;
2257;SDS011;1136;51.574;7.706;2023-03-23T13:12:20;6.53;;;6.03;;
2257;SDS011;1136;51.574;7.706;2023-03-23T13:17:40;7.20;;;6.13;;
2257;SDS011;1136;51.574;7.706;2023-03-23T13:23:00;7.27;;;6.67;;
2257;SDS011;1136;51.574;7.706;2023-03-23T13:25:44;6.30;;;5.70;;
2257;SDS011;1136;51.574;7.706;2023-03-23T13:28:19;7.17;;;6.50;;
2257;SDS011;1136;51.574;7.706;2023-03-23T13:31:21;9.73;;;8.83;;
2257;SDS011;1136;51.574;7.706;2023-03-23T13:33:49;19.03;;;13.03;;
2257;SDS011;1136;51.574;7.706;2023-03-23T13:36:16;15.47;;;11.57;;
2257;SDS011;1136;51.574;7.706;2023-03-23T13:38:53;7.23;;;6.50;;
2257;SDS011;1136;51.574;7.706;2023-03-23T13:41:19;11.20;;;10.03;;
2257;SDS011;1136;51.574;7.706;2023-03-23T13:43:47;7.07;;;6.37;;
2257;SDS011;1136;51.574;7.706;2023-03-23T13:48:46;6.90;;;5.87;;
2257;SDS011;1136;51.574;7.706;2023-03-23T14:01:52;3.77;;;3.47;;
2257;SDS011;1136;51.574;7.706;2023-03-23T14:04:20;5.13;;;2.83;;
2257;SDS011;1136;51.574;7.706;2023-03-23T14:06:47;3.50;;;2.30;;
2257;SDS011;1136;51.574;7.706;2023-03-23T14:09:33;2.50;;;2.30;;
2257;SDS011;1136;51.574;7.706;2023-03-23T14:12:03;3.53;;;2.27;;
2257;SDS011;1136;51.574;7.706;2023-03-23T14:14:44;5.67;;;2.10;;
2257;SDS011;1136;51.574;7.706;2023-03-23T14:17:14;5.37;;;2.20;;
2257;SDS011;1136;51.574;7.706;2023-03-23T14:19:42;5.80;;;3.00;;
2257;SDS011;1136;51.574;7.706;2023-03-23T14:22:19;4.17;;;2.33;;
2257;SDS011;1136;51.574;7.706;2023-03-23T14:24:47;3.90;;;2.30;;
2257;SDS011;1136;51.574;7.706;2023-03-23T14:27:14;3.30;;;2.80;;
2257;SDS011;1136;51.574;7.706;2023-03-23T14:29:42;4.03;;;3.30;;
2257;SDS011;1136;51.574;7.706;2023-03-23T14:32:10;4.37;;;3.40;;
2257;SDS011;1136;51.574;7.706;2023-03-23T14:34:40;3.13;;;2.83;;
2257;SDS011;1136;51.574;7.706;2023-03-23T14:37:06;4.30;;;3.73;;
2257;SDS011;1136;51.574;7.706;2023-03-23T14:39:36;4.27;;;3.87;;
2257;SDS011;1136;51.574;7.706;2023-03-23T14:42:03;4.20;;;3.80;;
2257;SDS011;1136;51.574;7.706;2023-03-23T14:44:40;6.50;;;4.93;;
2257;SDS011;1136;51.574;7.706;2023-03-23T14:47:10;10.23;;;8.63;;
2257;SDS011;1136;51.574;7.706;2023-03-23T14:49:41;10.67;;;7.27;;
2257;SDS011;1136;51.574;7.706;2023-03-23T14:52:15;13.10;;;11.20;;
2257;SDS011;1136;51.574;7.706;2023-03-23T14:54:42;9.97;;;8.97;;
2257;SDS011;1136;51.574;7.706;2023-03-23T14:57:12;9.27;;;8.10;;
2257;SDS011;1136;51.574;7.706;2023-03-23T14:59:46;11.57;;;9.87;;
2257;SDS011;1136;51.574;7.706;2023-03-23T15:02:14;21.30;;;10.27;;
2257;SDS011;1136;51.574;7.706;2023-03-23T15:05:11;12.93;;;11.00;;
2257;SDS011;1136;51.574;7.706;2023-03-23T15:07:40;15.60;;;11.40;;
2257;SDS011;1136;51.574;7.706;2023-03-23T15:10:13;12.57;;;10.73;;
2257;SDS011;1136;51.574;7.706;2023-03-23T15:12:43;11.57;;;10.57;;
2257;SDS011;1136;51.574;7.706;2023-03-23T15:15:18;11.77;;;10.50;;
2257;SDS011;1136;51.574;7.706;2023-03-23T15:17:46;10.97;;;9.87;;
2257;SDS011;1136;51.574;7.706;2023-03-23T15:22:46;11.50;;;9.10;;
2257;SDS011;1136;51.574;7.706;2023-03-23T15:25:23;13.97;;;10.60;;
2257;SDS011;1136;51.574;7.706;2023-03-23T15:27:55;9.13;;;8.00;;
2257;SDS011;1136;51.574;7.706;2023-03-23T15:32:52;9.03;;;8.23;;
2257;SDS011;1136;51.574;7.706;2023-03-23T15:35:20;8.33;;;7.53;;
2257;SDS011;1136;51.574;7.706;2023-03-23T15:37:48;10.07;;;7.77;;
2257;SDS011;1136;51.574;7.706;2023-03-23T15:40:26;8.47;;;7.37;;
2257;SDS011;1136;51.574;7.706;2023-03-23T15:43:15;7.23;;;6.63;;
2257;SDS011;1136;51.574;7.706;2023-03-23T15:51:17;6.60;;;6.00;;
2257;SDS011;1136;51.574;7.706;2023-03-23T15:53:44;8.90;;;6.77;;
2257;SDS011;1136;51.574;7.706;2023-03-23T15:56:11;7.70;;;5.80;;
2257;SDS011;1136;51.574;7.706;2023-03-23T15:58:38;6.73;;;3.60;;
2257;SDS011;1136;51.574;7.706;2023-03-23T16:01:15;4.73;;;3.90;;
2257;SDS011;1136;51.574;7.706;2023-03-23T16:03:52;6.97;;;4.13;;
2257;SDS011;1136;51.574;7.706;2023-03-23T16:06:22;3.50;;;3.20;;
2257;SDS011;1136;51.574;7.706;2023-03-23T16:08:51;5.33;;;2.20;;
2257;SDS011;1136;51.574;7.706;2023-03-23T16:11:20;2.60;;;2.30;;
2257;SDS011;1136;51.574;7.706;2023-03-23T16:13:47;4.07;;;3.00;;
2257;SDS011;1136;51.574;7.706;2023-03-23T16:16:18;4.10;;;1.97;;
2257;SDS011;1136;51.574;7.706;2023-03-23T16:18:47;4.23;;;2.33;;
2257;SDS011;1136;51.574;7.706;2023-03-23T16:21:15;3.50;;;2.63;;
2257;SDS011;1136;51.574;7.706;2023-03-23T16:23:42;5.93;;;2.50;;
2257;SDS011;1136;51.574;7.706;2023-03-23T16:26:12;4.57;;;2.27;;
2257;SDS011;1136;51.574;7.706;2023-03-23T16:28:40;4.37;;;2.43;;
2257;SDS011;1136;51.574;7.706;2023-03-23T16:31:07;2.50;;;2.20;;
2257;SDS011;1136;51.574;7.706;2023-03-23T16:33:34;5.00;;;2.57;;
2257;SDS011;1136;51.574;7.706;2023-03-23T16:36:01;3.00;;;2.70;;
2257;SDS011;1136;51.574;7.706;2023-03-23T16:38:28;4.80;;;2.97;;
2257;SDS011;1136;51.574;7.706;2023-03-23T16:40:54;3.30;;;2.53;;
2257;SDS011;1136;51.574;7.706;2023-03-23T16:43:21;4.30;;;3.00;;
2257;SDS011;1136;51.574;7.706;2023-03-23T16:45:48;4.90;;;3.37;;
2257;SDS011;1136;51.574;7.706;2023-03-23T16:48:15;8.23;;;3.80;;
2257;SDS011;1136;51.574;7.706;2023-03-23T16:50:42;3.93;;;3.30;;
2257;SDS011;1136;51.574;7.706;2023-03-23T16:53:12;5.13;;;3.20;;
2257;SDS011;1136;51.574;7.706;2023-03-23T16:55:39;4.33;;;3.57;;
2257;SDS011;1136;51.574;7.706;2023-03-23T16:58:06;4.37;;;3.40;;
2257;SDS011;1136;51.574;7.706;2023-03-23T17:00:38;5.73;;;3.83;;
2257;SDS011;1136;51.574;7.706;2023-03-23T17:03:05;4.37;;;3.30;;
2257;SDS011;1136;51.574;7.706;2023-03-23T17:05:33;4.37;;;3.47;;
2257;SDS011;1136;51.574;7.706;2023-03-23T17:08:01;9.60;;;4.13;;
2257;SDS011;1136;51.574;7.706;2023-03-23T17:10:28;3.60;;;3.40;;
2257;SDS011;1136;51.574;7.706;2023-03-23T17:12:55;4.20;;;3.87;;
2257;SDS011;1136;51.574;7.706;2023-03-23T17:15:22;4.47;;;4.13;;
2257;SDS011;1136;51.574;7.706;2023-03-23T17:17:51;8.93;;;6.40;;
2257;SDS011;1136;51.574;7.706;2023-03-23T17:20:20;11.17;;;10.03;;
2257;SDS011;1136;51.574;7.706;2023-03-23T17:22:47;8.40;;;7.20;;
2257;SDS011;1136;51.574;7.706;2023-03-23T17:25:14;5.53;;;5.03;;
2257;SDS011;1136;51.574;7.706;2023-03-23T17:27:40;7.00;;;6.30;;
2257;SDS011;1136;51.574;7.706;2023-03-23T17:30:07;10.00;;;7.07;;
2257;SDS011;1136;51.574;7.706;2023-03-23T17:32:36;6.93;;;5.73;;
2257;SDS011;1136;51.574;7.706;2023-03-23T17:35:04;8.80;;;6.40;;
2257;SDS011;1136;51.574;7.706;2023-03-23T17:37:31;6.97;;;5.27;;
2257;SDS011;1136;51.574;7.706;2023-03-23T17:39:58;6.63;;;5.30;;